sensor_id;sensor_type;location;lat;lon;timestamp;temperature;humidity
34768;DHT22;21755;43.608;1.236;2023-03-21T00:00:37;7.10;99.90
34768;DHT22;21755;43.608;1.236;2023-03-21T00:03:03;7.10;99.90
34768;DHT22;21755;43.608;1.236;2023-03-21T00:05:30;7.00;99.90
34768;DHT22;21755;43.608;1.236;2023-03-21T00:07:56;7.10;99.90
34768;DHT22;21755;43.608;1.236;2023-03-21T00:10:22;7.10;99.90
34768;DHT22;21755;43.608;1.236;2023-03-21T00:12:48;7.00;99.90
34768;DHT22;21755;43.608;1.236;2023-03-21T00:15:20;7.00;99.90
34768;DHT22;21755;43.608;1.236;2023-03-21T00:17:45;7.00;99.90
34768;DHT22;21755;43.608;1.236;2023-03-21T00:20:15;6.90;99.90
34768;DHT22;21755;43.608;1.236;2023-03-21T00:22:41;6.80;99.90
34768;DHT22;21755;43.608;1.236;2023-03-21T00:25:08;6.90;99.90
34768;DHT22;21755;43.608;1.236;2023-03-21T00:27:35;6.90;99.90
34768;DHT22;21755;43.608;1.236;2023-03-21T00:30:02;6.90;99.90
34768;DHT22;21755;43.608;1.236;2023-03-21T00:32:28;6.90;99.90
34768;DHT22;21755;43.608;1.236;2023-03-21T00:34:54;6.90;99.90
34768;DHT22;21755;43.608;1.236;2023-03-21T00:37:20;6.80;99.90
34768;DHT22;21755;43.608;1.236;2023-03-21T00:39:47;6.80;99.90
34768;DHT22;21755;43.608;1.236;2023-03-21T00:42:17;6.70;99.90
34768;DHT22;21755;43.608;1.236;2023-03-21T00:44:43;6.70;99.90
34768;DHT22;21755;43.608;1.236;2023-03-21T00:47:11;6.70;99.90
34768;DHT22;21755;43.608;1.236;2023-03-21T00:49:37;6.70;99.90
34768;DHT22;21755;43.608;1.236;2023-03-21T00:52:05;6.70;99.90
34768;DHT22;21755;43.608;1.236;2023-03-21T00:54:35;6.70;99.90
34768;DHT22;21755;43.608;1.236;2023-03-21T00:57:02;6.60;99.90
34768;DHT22;21755;43.608;1.236;2023-03-21T00:59:28;6.70;99.90
34768;DHT22;21755;43.608;1.236;2023-03-21T01:01:55;6.60;99.90
34768;DHT22;21755;43.608;1.236;2023-03-21T01:04:21;6.60;99.90
34768;DHT22;21755;43.608;1.236;2023-03-21T01:06:51;6.60;99.90
34768;DHT22;21755;43.608;1.236;2023-03-21T01:09:20;6.60;99.90
34768;DHT22;21755;43.608;1.236;2023-03-21T01:11:46;6.50;99.90
34768;DHT22;21755;43.608;1.236;2023-03-21T01:14:14;6.50;99.90
34768;DHT22;21755;43.608;1.236;2023-03-21T01:16:41;6.40;99.90
34768;DHT22;21755;43.608;1.236;2023-03-21T01:19:09;6.40;99.90
34768;DHT22;21755;43.608;1.236;2023-03-21T01:21:36;6.50;99.90
34768;DHT22;21755;43.608;1.236;2023-03-21T01:24:02;6.50;99.90
34768;DHT22;21755;43.608;1.236;2023-03-21T01:26:28;6.50;99.90
34768;DHT22;21755;43.608;1.236;2023-03-21T01:28:54;6.40;99.90
34768;DHT22;21755;43.608;1.236;2023-03-21T01:31:20;6.40;99.90
34768;DHT22;21755;43.608;1.236;2023-03-21T01:33:46;6.50;99.90
34768;DHT22;21755;43.608;1.236;2023-03-21T01:36:24;6.40;99.90
34768;DHT22;21755;43.608;1.236;2023-03-21T01:38:51;6.40;99.90
34768;DHT22;21755;43.608;1.236;2023-03-21T01:43:56;6.40;99.90
34768;DHT22;21755;43.608;1.236;2023-03-21T01:46:35;6.40;99.90
34768;DHT22;21755;43.608;1.236;2023-03-21T01:49:16;6.40;99.90
34768;DHT22;21755;43.608;1.236;2023-03-21T01:51:47;6.30;99.90
34768;DHT22;21755;43.608;1.236;2023-03-21T01:54:19;6.30;99.90
34768;DHT22;21755;43.608;1.236;2023-03-21T01:56:50;6.30;99.90
34768;DHT22;21755;43.608;1.236;2023-03-21T01:59:25;6.30;99.90
34768;DHT22;21755;43.608;1.236;2023-03-21T02:01:52;6.30;99.90
34768;DHT22;21755;43.608;1.236;2023-03-21T02:04:20;6.30;99.90
34768;DHT22;21755;43.608;1.236;2023-03-21T02:06:58;6.30;99.90
34768;DHT22;21755;43.608;1.236;2023-03-21T02:09:26;6.20;99.90
34768;DHT22;21755;43.608;1.236;2023-03-21T02:11:53;6.20;99.90
34768;DHT22;21755;43.608;1.236;2023-03-21T02:14:19;6.20;99.90
34768;DHT22;21755;43.608;1.236;2023-03-21T02:16:56;6.10;99.90
34768;DHT22;21755;43.608;1.236;2023-03-21T02:27:51;6.00;99.90
34768;DHT22;21755;43.608;1.236;2023-03-21T02:30:30;6.00;99.90
34768;DHT22;21755;43.608;1.236;2023-03-21T02:35:51;6.00;99.90
34768;DHT22;21755;43.608;1.236;2023-03-21T02:41:16;5.90;99.90
34768;DHT22;21755;43.608;1.236;2023-03-21T02:43:53;5.80;99.90
34768;DHT22;21755;43.608;1.236;2023-03-21T02:46:31;5.80;99.90
34768;DHT22;21755;43.608;1.236;2023-03-21T02:49:26;5.80;99.90
34768;DHT22;21755;43.608;1.236;2023-03-21T02:51:57;5.80;99.90
34768;DHT22;21755;43.608;1.236;2023-03-21T02:54:25;5.80;99.90
34768;DHT22;21755;43.608;1.236;2023-03-21T02:56:54;5.80;99.90
34768;DHT22;21755;43.608;1.236;2023-03-21T02:59:22;5.80;99.90
34768;DHT22;21755;43.608;1.236;2023-03-21T03:01:53;5.70;99.90
34768;DHT22;21755;43.608;1.236;2023-03-21T03:04:23;5.70;99.90
34768;DHT22;21755;43.608;1.236;2023-03-21T03:07:16;5.60;99.90
34768;DHT22;21755;43.608;1.236;2023-03-21T03:17:50;5.60;99.90
34768;DHT22;21755;43.608;1.236;2023-03-21T03:23:43;5.60;99.90
34768;DHT22;21755;43.608;1.236;2023-03-21T03:26:33;5.60;99.90
34768;DHT22;21755;43.608;1.236;2023-03-21T03:29:13;5.60;99.90
34768;DHT22;21755;43.608;1.236;2023-03-21T03:32:05;5.60;99.90
34768;DHT22;21755;43.608;1.236;2023-03-21T03:34:36;5.60;99.90
34768;DHT22;21755;43.608;1.236;2023-03-21T03:37:06;5.60;99.90
34768;DHT22;21755;43.608;1.236;2023-03-21T03:39:39;5.50;99.90
34768;DHT22;21755;43.608;1.236;2023-03-21T03:42:19;5.50;99.90
34768;DHT22;21755;43.608;1.236;2023-03-21T03:44:46;5.40;99.90
34768;DHT22;21755;43.608;1.236;2023-03-21T03:49:56;5.50;99.90
34768;DHT22;21755;43.608;1.236;2023-03-21T03:52:33;5.30;99.90
34768;DHT22;21755;43.608;1.236;2023-03-21T03:55:01;5.30;99.90
34768;DHT22;21755;43.608;1.236;2023-03-21T03:57:28;5.30;99.90
34768;DHT22;21755;43.608;1.236;2023-03-21T03:59:54;5.30;99.90
34768;DHT22;21755;43.608;1.236;2023-03-21T04:02:20;5.30;99.90
34768;DHT22;21755;43.608;1.236;2023-03-21T04:04:46;5.30;99.90
34768;DHT22;21755;43.608;1.236;2023-03-21T04:07:13;5.40;99.90
34768;DHT22;21755;43.608;1.236;2023-03-21T04:09:39;5.40;99.90
34768;DHT22;21755;43.608;1.236;2023-03-21T04:12:05;5.40;99.90
34768;DHT22;21755;43.608;1.236;2023-03-21T04:14:31;5.40;99.90
34768;DHT22;21755;43.608;1.236;2023-03-21T04:16:56;5.40;99.90
34768;DHT22;21755;43.608;1.236;2023-03-21T04:19:23;5.40;99.90
34768;DHT22;21755;43.608;1.236;2023-03-21T04:21:48;5.30;99.90
34768;DHT22;21755;43.608;1.236;2023-03-21T04:24:14;5.40;99.90
34768;DHT22;21755;43.608;1.236;2023-03-21T04:26:40;5.30;99.90
34768;DHT22;21755;43.608;1.236;2023-03-21T04:29:06;5.20;99.90
34768;DHT22;21755;43.608;1.236;2023-03-21T04:31:33;5.20;99.90
34768;DHT22;21755;43.608;1.236;2023-03-21T04:34:02;5.20;99.90
34768;DHT22;21755;43.608;1.236;2023-03-21T04:36:30;5.10;99.90
34768;DHT22;21755;43.608;1.236;2023-03-21T04:39:04;5.10;99.90
34768;DHT22;21755;43.608;1.236;2023-03-21T04:41:34;5.10;99.90
34768;DHT22;21755;43.608;1.236;2023-03-21T04:44:02;5.10;99.90
34768;DHT22;21755;43.608;1.236;2023-03-21T04:46:28;5.10;99.90
34768;DHT22;21755;43.608;1.236;2023-03-21T04:48:54;5.00;99.90
34768;DHT22;21755;43.608;1.236;2023-03-21T04:51:19;5.00;99.90
34768;DHT22;21755;43.608;1.236;2023-03-21T04:53:45;4.90;99.90
34768;DHT22;21755;43.608;1.236;2023-03-21T04:56:14;4.80;99.90
34768;DHT22;21755;43.608;1.236;2023-03-21T04:58:41;4.80;99.90
34768;DHT22;21755;43.608;1.236;2023-03-21T05:01:07;4.80;99.90
34768;DHT22;21755;43.608;1.236;2023-03-21T05:03:33;4.80;99.90
34768;DHT22;21755;43.608;1.236;2023-03-21T05:06:08;4.80;99.90
34768;DHT22;21755;43.608;1.236;2023-03-21T05:08:35;4.90;99.90
34768;DHT22;21755;43.608;1.236;2023-03-21T05:11:02;4.80;99.90
34768;DHT22;21755;43.608;1.236;2023-03-21T05:13:28;4.90;99.90
34768;DHT22;21755;43.608;1.236;2023-03-21T05:15:54;4.90;99.90
34768;DHT22;21755;43.608;1.236;2023-03-21T05:18:20;4.80;99.90
34768;DHT22;21755;43.608;1.236;2023-03-21T05:20:50;4.80;99.90
34768;DHT22;21755;43.608;1.236;2023-03-21T05:23:23;4.80;99.90
34768;DHT22;21755;43.608;1.236;2023-03-21T05:25:49;4.80;99.90
34768;DHT22;21755;43.608;1.236;2023-03-21T05:28:16;4.80;99.90
34768;DHT22;21755;43.608;1.236;2023-03-21T05:30:43;4.80;99.90
34768;DHT22;21755;43.608;1.236;2023-03-21T05:33:11;4.80;99.90
34768;DHT22;21755;43.608;1.236;2023-03-21T05:35:37;4.70;99.90
34768;DHT22;21755;43.608;1.236;2023-03-21T05:38:03;4.70;99.90
34768;DHT22;21755;43.608;1.236;2023-03-21T05:40:28;4.80;99.90
34768;DHT22;21755;43.608;1.236;2023-03-21T05:42:54;4.80;99.90
34768;DHT22;21755;43.608;1.236;2023-03-21T05:45:20;4.80;99.90
34768;DHT22;21755;43.608;1.236;2023-03-21T05:47:46;4.80;99.90
34768;DHT22;21755;43.608;1.236;2023-03-21T05:50:12;4.80;99.90
34768;DHT22;21755;43.608;1.236;2023-03-21T05:52:39;4.80;99.90
34768;DHT22;21755;43.608;1.236;2023-03-21T05:55:05;4.70;99.90
34768;DHT22;21755;43.608;1.236;2023-03-21T05:57:31;4.70;99.90
34768;DHT22;21755;43.608;1.236;2023-03-21T06:00:00;4.70;99.90
34768;DHT22;21755;43.608;1.236;2023-03-21T06:02:26;4.80;99.90
34768;DHT22;21755;43.608;1.236;2023-03-21T06:04:52;4.80;99.90
34768;DHT22;21755;43.608;1.236;2023-03-21T06:07:18;4.90;99.90
34768;DHT22;21755;43.608;1.236;2023-03-21T06:09:44;4.90;99.90
34768;DHT22;21755;43.608;1.236;2023-03-21T06:12:10;4.90;99.90
34768;DHT22;21755;43.608;1.236;2023-03-21T06:14:37;4.80;99.90
34768;DHT22;21755;43.608;1.236;2023-03-21T06:17:02;4.90;99.90
34768;DHT22;21755;43.608;1.236;2023-03-21T06:19:28;4.90;99.90
34768;DHT22;21755;43.608;1.236;2023-03-21T06:21:54;4.80;99.90
34768;DHT22;21755;43.608;1.236;2023-03-21T06:24:20;4.80;99.90
34768;DHT22;21755;43.608;1.236;2023-03-21T06:26:46;4.80;99.90
34768;DHT22;21755;43.608;1.236;2023-03-21T06:29:13;4.90;99.90
34768;DHT22;21755;43.608;1.236;2023-03-21T06:31:39;5.00;99.90
34768;DHT22;21755;43.608;1.236;2023-03-21T06:34:05;5.10;99.90
34768;DHT22;21755;43.608;1.236;2023-03-21T06:36:31;5.00;99.90
34768;DHT22;21755;43.608;1.236;2023-03-21T06:38:57;5.00;99.90
34768;DHT22;21755;43.608;1.236;2023-03-21T06:41:22;5.10;99.90
34768;DHT22;21755;43.608;1.236;2023-03-21T06:43:48;5.20;99.90
34768;DHT22;21755;43.608;1.236;2023-03-21T06:46:14;5.20;99.90
34768;DHT22;21755;43.608;1.236;2023-03-21T06:48:40;5.30;99.90
34768;DHT22;21755;43.608;1.236;2023-03-21T06:51:15;5.40;99.90
34768;DHT22;21755;43.608;1.236;2023-03-21T06:53:41;5.40;99.90
34768;DHT22;21755;43.608;1.236;2023-03-21T06:56:08;5.40;99.90
34768;DHT22;21755;43.608;1.236;2023-03-21T06:58:35;5.40;99.90
34768;DHT22;21755;43.608;1.236;2023-03-21T07:01:01;5.50;99.90
34768;DHT22;21755;43.608;1.236;2023-03-21T07:03:28;5.50;99.90
34768;DHT22;21755;43.608;1.236;2023-03-21T07:05:54;5.70;99.90
34768;DHT22;21755;43.608;1.236;2023-03-21T07:08:20;5.70;99.90
34768;DHT22;21755;43.608;1.236;2023-03-21T07:10:46;5.80;99.90
34768;DHT22;21755;43.608;1.236;2023-03-21T07:13:13;5.90;99.90
34768;DHT22;21755;43.608;1.236;2023-03-21T07:15:39;5.90;99.90
34768;DHT22;21755;43.608;1.236;2023-03-21T07:18:08;6.00;99.90
34768;DHT22;21755;43.608;1.236;2023-03-21T07:20:34;6.10;99.90
34768;DHT22;21755;43.608;1.236;2023-03-21T07:23:02;6.20;99.90
34768;DHT22;21755;43.608;1.236;2023-03-21T07:25:28;6.40;99.90
34768;DHT22;21755;43.608;1.236;2023-03-21T07:27:54;6.50;99.90
34768;DHT22;21755;43.608;1.236;2023-03-21T07:30:21;6.60;99.90
34768;DHT22;21755;43.608;1.236;2023-03-21T07:32:47;6.70;99.90
34768;DHT22;21755;43.608;1.236;2023-03-21T07:35:15;6.80;99.90
34768;DHT22;21755;43.608;1.236;2023-03-21T07:37:42;6.90;99.90
34768;DHT22;21755;43.608;1.236;2023-03-21T07:40:09;6.90;99.90
34768;DHT22;21755;43.608;1.236;2023-03-21T07:42:36;7.00;99.90
34768;DHT22;21755;43.608;1.236;2023-03-21T07:45:03;9.30;99.90
34768;DHT22;21755;43.608;1.236;2023-03-21T07:47:30;10.60;99.90
34768;DHT22;21755;43.608;1.236;2023-03-21T07:49:56;11.30;99.90
34768;DHT22;21755;43.608;1.236;2023-03-21T07:52:22;10.80;99.90
34768;DHT22;21755;43.608;1.236;2023-03-21T07:54:48;9.80;99.90
34768;DHT22;21755;43.608;1.236;2023-03-21T07:57:13;9.30;99.90
34768;DHT22;21755;43.608;1.236;2023-03-21T07:59:39;9.00;99.90
34768;DHT22;21755;43.608;1.236;2023-03-21T08:02:06;8.70;99.90
34768;DHT22;21755;43.608;1.236;2023-03-21T08:04:31;8.60;99.90
34768;DHT22;21755;43.608;1.236;2023-03-21T08:06:59;8.60;99.90
34768;DHT22;21755;43.608;1.236;2023-03-21T08:09:26;8.60;99.90
34768;DHT22;21755;43.608;1.236;2023-03-21T08:11:51;8.60;99.90
34768;DHT22;21755;43.608;1.236;2023-03-21T08:14:17;8.70;99.90
34768;DHT22;21755;43.608;1.236;2023-03-21T08:16:43;8.90;99.90
34768;DHT22;21755;43.608;1.236;2023-03-21T08:19:09;8.90;99.90
34768;DHT22;21755;43.608;1.236;2023-03-21T08:21:35;9.00;99.90
34768;DHT22;21755;43.608;1.236;2023-03-21T08:24:04;9.00;99.90
34768;DHT22;21755;43.608;1.236;2023-03-21T08:26:31;9.00;99.90
34768;DHT22;21755;43.608;1.236;2023-03-21T08:28:59;9.00;99.90
34768;DHT22;21755;43.608;1.236;2023-03-21T08:31:24;9.20;99.90
34768;DHT22;21755;43.608;1.236;2023-03-21T08:33:50;9.30;99.90
34768;DHT22;21755;43.608;1.236;2023-03-21T08:36:20;9.40;99.90
34768;DHT22;21755;43.608;1.236;2023-03-21T08:38:47;9.50;99.90
34768;DHT22;21755;43.608;1.236;2023-03-21T08:41:14;9.50;99.90
34768;DHT22;21755;43.608;1.236;2023-03-21T08:43:40;9.70;99.90
34768;DHT22;21755;43.608;1.236;2023-03-21T08:46:06;9.70;99.90
34768;DHT22;21755;43.608;1.236;2023-03-21T08:48:32;9.80;99.90
34768;DHT22;21755;43.608;1.236;2023-03-21T08:51:00;9.90;99.90
34768;DHT22;21755;43.608;1.236;2023-03-21T08:53:26;9.90;99.90
34768;DHT22;21755;43.608;1.236;2023-03-21T08:55:52;10.00;99.90
34768;DHT22;21755;43.608;1.236;2023-03-21T08:58:18;10.10;99.90
34768;DHT22;21755;43.608;1.236;2023-03-21T09:00:44;10.20;99.90
34768;DHT22;21755;43.608;1.236;2023-03-21T09:03:09;10.30;99.90
34768;DHT22;21755;43.608;1.236;2023-03-21T09:05:35;10.40;99.90
34768;DHT22;21755;43.608;1.236;2023-03-21T09:08:02;10.50;99.90
34768;DHT22;21755;43.608;1.236;2023-03-21T09:10:30;10.60;99.90
34768;DHT22;21755;43.608;1.236;2023-03-21T09:12:56;10.60;99.90
34768;DHT22;21755;43.608;1.236;2023-03-21T09:15:23;10.70;99.90
34768;DHT22;21755;43.608;1.236;2023-03-21T09:17:50;10.70;99.90
34768;DHT22;21755;43.608;1.236;2023-03-21T09:20:25;10.80;99.90
34768;DHT22;21755;43.608;1.236;2023-03-21T09:22:55;10.90;99.90
34768;DHT22;21755;43.608;1.236;2023-03-21T09:25:22;11.00;99.90
34768;DHT22;21755;43.608;1.236;2023-03-21T09:27:49;11.20;99.90
34768;DHT22;21755;43.608;1.236;2023-03-21T09:30:18;11.30;99.90
34768;DHT22;21755;43.608;1.236;2023-03-21T09:32:46;11.40;99.90
34768;DHT22;21755;43.608;1.236;2023-03-21T09:35:15;11.50;99.90
34768;DHT22;21755;43.608;1.236;2023-03-21T09:37:42;11.50;99.90
34768;DHT22;21755;43.608;1.236;2023-03-21T09:43:13;11.70;99.90
34768;DHT22;21755;43.608;1.236;2023-03-21T09:48:21;12.00;99.90
34768;DHT22;21755;43.608;1.236;2023-03-21T09:50:55;12.10;99.90
34768;DHT22;21755;43.608;1.236;2023-03-21T09:53:46;12.20;99.90
34768;DHT22;21755;43.608;1.236;2023-03-21T09:56:14;12.20;99.90
34768;DHT22;21755;43.608;1.236;2023-03-21T09:58:50;12.40;99.90
34768;DHT22;21755;43.608;1.236;2023-03-21T10:01:23;12.50;99.90
34768;DHT22;21755;43.608;1.236;2023-03-21T10:03:55;12.50;99.90
34768;DHT22;21755;43.608;1.236;2023-03-21T10:06:23;12.50;99.90
34768;DHT22;21755;43.608;1.236;2023-03-21T10:08:57;12.80;99.90
34768;DHT22;21755;43.608;1.236;2023-03-21T10:11:27;12.80;99.90
34768;DHT22;21755;43.608;1.236;2023-03-21T10:14:02;12.90;99.90
34768;DHT22;21755;43.608;1.236;2023-03-21T10:16:34;13.10;99.90
34768;DHT22;21755;43.608;1.236;2023-03-21T10:19:03;13.30;99.90
34768;DHT22;21755;43.608;1.236;2023-03-21T10:21:29;13.50;99.90
34768;DHT22;21755;43.608;1.236;2023-03-21T10:23:58;13.50;99.90
34768;DHT22;21755;43.608;1.236;2023-03-21T10:26:26;13.60;99.90
34768;DHT22;21755;43.608;1.236;2023-03-21T10:28:55;13.60;99.90
34768;DHT22;21755;43.608;1.236;2023-03-21T10:31:24;13.70;99.90
34768;DHT22;21755;43.608;1.236;2023-03-21T10:33:53;14.00;99.90
34768;DHT22;21755;43.608;1.236;2023-03-21T10:36:26;13.90;99.90
34768;DHT22;21755;43.608;1.236;2023-03-21T10:39:01;13.90;99.90
34768;DHT22;21755;43.608;1.236;2023-03-21T10:41:28;14.10;99.90
34768;DHT22;21755;43.608;1.236;2023-03-21T10:44:31;14.40;99.90
34768;DHT22;21755;43.608;1.236;2023-03-21T10:47:07;14.50;99.90
34768;DHT22;21755;43.608;1.236;2023-03-21T10:49:36;14.70;99.90
34768;DHT22;21755;43.608;1.236;2023-03-21T10:52:06;14.80;99.90
34768;DHT22;21755;43.608;1.236;2023-03-21T10:54:33;15.00;99.90
34768;DHT22;21755;43.608;1.236;2023-03-21T10:57:06;15.10;99.90
34768;DHT22;21755;43.608;1.236;2023-03-21T10:59:48;14.90;99.90
34768;DHT22;21755;43.608;1.236;2023-03-21T11:02:23;15.00;99.90
34768;DHT22;21755;43.608;1.236;2023-03-21T11:04:53;15.10;99.90
34768;DHT22;21755;43.608;1.236;2023-03-21T11:07:21;15.50;99.90
34768;DHT22;21755;43.608;1.236;2023-03-21T11:09:54;15.60;99.90
34768;DHT22;21755;43.608;1.236;2023-03-21T11:12:36;15.50;99.90
34768;DHT22;21755;43.608;1.236;2023-03-21T11:15:29;15.60;99.90
34768;DHT22;21755;43.608;1.236;2023-03-21T11:17:56;15.50;99.90
34768;DHT22;21755;43.608;1.236;2023-03-21T11:20:22;15.60;99.90
34768;DHT22;21755;43.608;1.236;2023-03-21T11:22:48;15.80;99.90
34768;DHT22;21755;43.608;1.236;2023-03-21T11:25:38;15.70;99.90
34768;DHT22;21755;43.608;1.236;2023-03-21T11:28:11;15.70;99.90
34768;DHT22;21755;43.608;1.236;2023-03-21T11:30:55;15.50;99.90
34768;DHT22;21755;43.608;1.236;2023-03-21T11:33:25;15.50;99.90
34768;DHT22;21755;43.608;1.236;2023-03-21T11:38:35;15.30;99.90
34768;DHT22;21755;43.608;1.236;2023-03-21T11:41:02;15.40;99.90
34768;DHT22;21755;43.608;1.236;2023-03-21T11:43:31;15.40;99.90
34768;DHT22;21755;43.608;1.236;2023-03-21T11:45:59;15.40;99.90
34768;DHT22;21755;43.608;1.236;2023-03-21T11:48:50;15.50;99.90
34768;DHT22;21755;43.608;1.236;2023-03-21T11:51:44;15.70;99.90
34768;DHT22;21755;43.608;1.236;2023-03-21T11:54:25;15.80;99.90
34768;DHT22;21755;43.608;1.236;2023-03-21T11:57:21;16.00;99.90
34768;DHT22;21755;43.608;1.236;2023-03-21T12:05:38;16.10;99.90
34768;DHT22;21755;43.608;1.236;2023-03-21T12:13:42;16.20;99.90
34768;DHT22;21755;43.608;1.236;2023-03-21T12:16:48;16.30;99.90
34768;DHT22;21755;43.608;1.236;2023-03-21T12:28:02;16.80;99.90
34768;DHT22;21755;43.608;1.236;2023-03-21T12:33:43;16.60;99.90
34768;DHT22;21755;43.608;1.236;2023-03-21T12:44:16;16.70;99.90
34768;DHT22;21755;43.608;1.236;2023-03-21T12:46:54;16.90;99.90
34768;DHT22;21755;43.608;1.236;2023-03-21T12:54:36;17.40;99.90
34768;DHT22;21755;43.608;1.236;2023-03-21T13:02:33;17.20;99.90
34768;DHT22;21755;43.608;1.236;2023-03-21T13:05:29;17.20;99.90
34768;DHT22;21755;43.608;1.236;2023-03-21T13:08:22;17.20;99.90
34768;DHT22;21755;43.608;1.236;2023-03-21T13:10:48;17.20;99.90
34768;DHT22;21755;43.608;1.236;2023-03-21T13:18:35;17.40;99.90
34768;DHT22;21755;43.608;1.236;2023-03-21T13:21:21;17.30;99.90
34768;DHT22;21755;43.608;1.236;2023-03-21T13:24:03;17.30;99.90
34768;DHT22;21755;43.608;1.236;2023-03-21T13:26:37;17.60;99.70
34768;DHT22;21755;43.608;1.236;2023-03-21T13:31:56;17.60;99.90
34768;DHT22;21755;43.608;1.236;2023-03-21T13:34:24;17.80;99.60
34768;DHT22;21755;43.608;1.236;2023-03-21T13:36:51;17.80;99.90
34768;DHT22;21755;43.608;1.236;2023-03-21T13:39:23;17.80;99.90
34768;DHT22;21755;43.608;1.236;2023-03-21T13:41:50;17.90;99.90
34768;DHT22;21755;43.608;1.236;2023-03-21T13:44:40;17.90;99.90
34768;DHT22;21755;43.608;1.236;2023-03-21T13:47:29;17.90;99.90
34768;DHT22;21755;43.608;1.236;2023-03-21T13:55:30;17.90;99.00
34768;DHT22;21755;43.608;1.236;2023-03-21T14:04:09;18.10;99.90
34768;DHT22;21755;43.608;1.236;2023-03-21T14:11:51;18.20;99.20
34768;DHT22;21755;43.608;1.236;2023-03-21T14:14:19;18.30;99.20
34768;DHT22;21755;43.608;1.236;2023-03-21T14:16:46;18.20;97.30
34768;DHT22;21755;43.608;1.236;2023-03-21T14:19:12;18.10;94.80
34768;DHT22;21755;43.608;1.236;2023-03-21T14:21:46;17.90;93.30
34768;DHT22;21755;43.608;1.236;2023-03-21T14:24:13;17.80;94.30
34768;DHT22;21755;43.608;1.236;2023-03-21T14:26:43;18.00;96.70
34768;DHT22;21755;43.608;1.236;2023-03-21T14:29:19;18.10;96.30
34768;DHT22;21755;43.608;1.236;2023-03-21T14:31:48;18.10;94.00
34768;DHT22;21755;43.608;1.236;2023-03-21T14:34:15;18.10;96.30
34768;DHT22;21755;43.608;1.236;2023-03-21T14:36:42;18.00;94.50
34768;DHT22;21755;43.608;1.236;2023-03-21T14:39:16;18.00;95.20
34768;DHT22;21755;43.608;1.236;2023-03-21T14:41:46;17.90;95.20
34768;DHT22;21755;43.608;1.236;2023-03-21T14:44:48;17.90;96.40
34768;DHT22;21755;43.608;1.236;2023-03-21T14:47:22;17.70;97.60
34768;DHT22;21755;43.608;1.236;2023-03-21T14:49:49;17.70;97.20
34768;DHT22;21755;43.608;1.236;2023-03-21T14:52:27;17.70;96.90
34768;DHT22;21755;43.608;1.236;2023-03-21T14:54:54;17.60;97.40
34768;DHT22;21755;43.608;1.236;2023-03-21T14:57:23;17.50;96.30
34768;DHT22;21755;43.608;1.236;2023-03-21T14:59:52;17.50;96.40
34768;DHT22;21755;43.608;1.236;2023-03-21T15:02:32;17.50;96.90
34768;DHT22;21755;43.608;1.236;2023-03-21T15:05:09;17.40;96.40
34768;DHT22;21755;43.608;1.236;2023-03-21T15:07:36;17.40;97.00
34768;DHT22;21755;43.608;1.236;2023-03-21T15:10:12;17.50;98.10
34768;DHT22;21755;43.608;1.236;2023-03-21T15:12:53;17.40;98.00
34768;DHT22;21755;43.608;1.236;2023-03-21T15:15:20;17.40;98.70
34768;DHT22;21755;43.608;1.236;2023-03-21T15:17:48;17.50;99.10
34768;DHT22;21755;43.608;1.236;2023-03-21T15:20:18;17.40;99.90
34768;DHT22;21755;43.608;1.236;2023-03-21T15:22:50;17.40;99.40
34768;DHT22;21755;43.608;1.236;2023-03-21T15:25:21;17.40;99.90
34768;DHT22;21755;43.608;1.236;2023-03-21T15:27:51;17.20;99.70
34768;DHT22;21755;43.608;1.236;2023-03-21T15:30:22;17.10;99.90
34768;DHT22;21755;43.608;1.236;2023-03-21T15:32:48;17.00;99.90
34768;DHT22;21755;43.608;1.236;2023-03-21T15:35:29;16.90;99.90
34768;DHT22;21755;43.608;1.236;2023-03-21T15:37:57;16.80;99.90
34768;DHT22;21755;43.608;1.236;2023-03-21T15:42:50;16.70;99.90
34768;DHT22;21755;43.608;1.236;2023-03-21T15:45:20;16.70;99.90
34768;DHT22;21755;43.608;1.236;2023-03-21T15:50:35;16.60;99.90
34768;DHT22;21755;43.608;1.236;2023-03-21T15:53:10;16.60;99.90
34768;DHT22;21755;43.608;1.236;2023-03-21T15:58:09;16.70;99.90
34768;DHT22;21755;43.608;1.236;2023-03-21T16:00:42;16.80;99.90
34768;DHT22;21755;43.608;1.236;2023-03-21T16:03:30;17.00;99.90
34768;DHT22;21755;43.608;1.236;2023-03-21T16:08:45;16.90;99.90
34768;DHT22;21755;43.608;1.236;2023-03-21T16:13:50;16.80;99.90
34768;DHT22;21755;43.608;1.236;2023-03-21T16:16:19;16.90;99.90
34768;DHT22;21755;43.608;1.236;2023-03-21T16:18:46;17.00;99.90
34768;DHT22;21755;43.608;1.236;2023-03-21T16:21:13;17.10;99.90
34768;DHT22;21755;43.608;1.236;2023-03-21T16:23:39;17.10;99.90
34768;DHT22;21755;43.608;1.236;2023-03-21T16:26:09;17.10;99.90
34768;DHT22;21755;43.608;1.236;2023-03-21T16:28:36;17.10;99.90
34768;DHT22;21755;43.608;1.236;2023-03-21T16:31:02;17.20;99.10
34768;DHT22;21755;43.608;1.236;2023-03-21T16:33:28;17.00;98.60
34768;DHT22;21755;43.608;1.236;2023-03-21T16:35:53;16.90;99.80
34768;DHT22;21755;43.608;1.236;2023-03-21T16:38:22;16.90;99.20
34768;DHT22;21755;43.608;1.236;2023-03-21T16:40:49;16.70;99.60
34768;DHT22;21755;43.608;1.236;2023-03-21T16:43:16;16.60;99.90
34768;DHT22;21755;43.608;1.236;2023-03-21T16:45:42;16.60;99.90
34768;DHT22;21755;43.608;1.236;2023-03-21T16:48:09;16.70;99.90
34768;DHT22;21755;43.608;1.236;2023-03-21T16:50:43;16.80;99.90
34768;DHT22;21755;43.608;1.236;2023-03-21T16:53:10;16.80;99.90
34768;DHT22;21755;43.608;1.236;2023-03-21T16:55:36;16.80;99.90
34768;DHT22;21755;43.608;1.236;2023-03-21T16:58:03;16.60;99.90
34768;DHT22;21755;43.608;1.236;2023-03-21T17:00:30;16.50;99.90
34768;DHT22;21755;43.608;1.236;2023-03-21T17:03:00;16.40;99.90
34768;DHT22;21755;43.608;1.236;2023-03-21T17:05:27;16.30;99.90
34768;DHT22;21755;43.608;1.236;2023-03-21T17:07:56;16.20;99.90
34768;DHT22;21755;43.608;1.236;2023-03-21T17:10:28;16.10;99.90
34768;DHT22;21755;43.608;1.236;2023-03-21T17:12:54;16.00;99.90
34768;DHT22;21755;43.608;1.236;2023-03-21T17:15:20;16.00;99.90
34768;DHT22;21755;43.608;1.236;2023-03-21T17:17:47;16.00;99.90
34768;DHT22;21755;43.608;1.236;2023-03-21T17:20:16;15.90;99.90
34768;DHT22;21755;43.608;1.236;2023-03-21T17:22:42;15.90;99.90
34768;DHT22;21755;43.608;1.236;2023-03-21T17:25:08;15.90;99.90
34768;DHT22;21755;43.608;1.236;2023-03-21T17:27:34;15.90;99.90
34768;DHT22;21755;43.608;1.236;2023-03-21T17:30:00;15.90;99.90
34768;DHT22;21755;43.608;1.236;2023-03-21T17:32:26;15.90;99.90
34768;DHT22;21755;43.608;1.236;2023-03-21T17:34:52;15.80;99.90
34768;DHT22;21755;43.608;1.236;2023-03-21T17:37:18;15.80;99.90
34768;DHT22;21755;43.608;1.236;2023-03-21T17:39:45;15.80;99.90
34768;DHT22;21755;43.608;1.236;2023-03-21T17:42:14;15.70;99.90
34768;DHT22;21755;43.608;1.236;2023-03-21T17:44:42;15.60;99.90
34768;DHT22;21755;43.608;1.236;2023-03-21T17:47:09;15.60;99.90
34768;DHT22;21755;43.608;1.236;2023-03-21T17:49:35;15.50;99.90
34768;DHT22;21755;43.608;1.236;2023-03-21T17:52:01;15.50;99.90
34768;DHT22;21755;43.608;1.236;2023-03-21T17:54:27;15.40;99.90